Time;durP1;ratioP1;P1;durP2;ratioP2;P2;SDS_P1;SDS_P2;PMS_P1;PMS_P2;Temp;Humidity;BMP_temperature;BMP_pressure;BME280_temperature;BME280_humidity;BME280_pressure;Samples;Min_cycle;Max_cycle;Signal;HPM_P1;HPM_P2
2023/12/02 00:01:59;;;;;;;14.13;7.10;;;;;;;;;;5115974;27;41763;-64
2023/12/02 00:04:27;;;;;;;10.57;7.25;;;;;;;;;;5116126;27;43549;-63
2023/12/02 00:06:55;;;;;;;11.57;7.20;;;;;;;;;;5123018;27;40464;-63
2023/12/02 00:09:23;;;;;;;11.32;8.13;;;;;;;;;;5119749;27;41688;-63
2023/12/02 00:11:53;;;;;;;15.27;7.85;;;;;;;;;;5120836;27;39011;-63
2023/12/02 00:14:21;;;;;;;11.05;6.30;;;;;;;;;;5116208;27;41241;-63
2023/12/02 00:16:50;;;;;;;9.20;6.65;;;;;;;;;;5112403;27;41492;-63
2023/12/02 00:19:18;;;;;;;12.27;7.75;;;;;;;;;;5125954;27;40201;-63
2023/12/02 00:21:45;;;;;;;11.20;6.95;;;;;;;;;;5144677;27;41612;-64
2023/12/02 00:24:13;;;;;;;14.73;8.60;;;;;;;;;;5130412;27;43295;-63
2023/12/02 00:26:41;;;;;;;9.98;6.68;;;;;;;;;;5126882;27;40543;-64
2023/12/02 00:29:09;;;;;;;10.15;7.68;;;;;;;;;;5127256;27;42751;-64
2023/12/02 00:31:37;;;;;;;9.18;6.65;;;;;;;;;;5117612;27;42091;-64
2023/12/02 00:34:07;;;;;;;12.07;7.55;;;;;;;;;;5128920;27;42526;-63
2023/12/02 00:36:34;;;;;;;11.43;8.35;;;;;;;;;;5128954;27;41541;-63
2023/12/02 00:39:03;;;;;;;8.88;6.60;;;;;;;;;;5128379;27;40367;-64
2023/12/02 00:41:31;;;;;;;10.45;7.53;;;;;;;;;;5124503;27;41441;-64
2023/12/02 00:43:58;;;;;;;7.82;6.20;;;;;;;;;;5139904;27;41965;-63
2023/12/02 00:46:26;;;;;;;10.13;6.97;;;;;;;;;;5131579;27;40605;-64
2023/12/02 00:48:54;;;;;;;11.15;7.57;;;;;;;;;;5128252;27;41310;-64
2023/12/02 00:51:24;;;;;;;9.52;6.15;;;;;;;;;;5124715;27;42296;-63
2023/12/02 00:53:52;;;;;;;8.05;6.35;;;;;;;;;;5126083;27;40927;-64
2023/12/02 00:56:20;;;;;;;7.70;5.95;;;;;;;;;;5134428;27;42999;-64
2023/12/02 00:58:47;;;;;;;11.45;7.80;;;;;;;;;;5110585;27;40666;-64
2023/12/02 01:01:15;;;;;;;13.85;6.60;;;;;;;;;;5119283;27;42386;-64
2023/12/02 01:03:43;;;;;;;9.93;6.07;;;;;;;;;;5128612;27;44866;-64
2023/12/02 01:06:11;;;;;;;9.73;6.57;;;;;;;;;;5147740;27;41550;-63
2023/12/02 01:08:41;;;;;;;8.65;6.32;;;;;;;;;;5136507;27;42173;-63
2023/12/02 01:11:08;;;;;;;9.82;7.38;;;;;;;;;;5135211;27;42729;-64
2023/12/02 01:13:36;;;;;;;9.23;6.63;;;;;;;;;;5126447;27;39964;-63
2023/12/02 01:16:05;;;;;;;14.32;7.68;;;;;;;;;;5109767;27;41633;-63
2023/12/02 01:18:33;;;;;;;7.25;5.97;;;;;;;;;;5116695;27;40095;-64
2023/12/02 01:21:01;;;;;;;8.13;6.20;;;;;;;;;;5139163;27;41593;-63
2023/12/02 01:23:29;;;;;;;9.80;6.25;;;;;;;;;;5140403;27;41685;-63
2023/12/02 01:25:58;;;;;;;8.85;6.40;;;;;;;;;;5125330;27;40416;-64
2023/12/02 01:28:27;;;;;;;9.45;7.38;;;;;;;;;;5116105;27;20580;-63
2023/12/02 01:30:57;;;;;;;8.63;7.07;;;;;;;;;;5127470;27;43065;-63
2023/12/02 01:33:25;;;;;;;8.95;6.65;;;;;;;;;;5134552;27;40463;-64
2023/12/02 01:35:53;;;;;;;8.73;6.80;;;;;;;;;;5132048;27;42387;-64
2023/12/02 01:38:21;;;;;;;8.50;6.05;;;;;;;;;;5113464;27;40332;-64
2023/12/02 01:40:49;;;;;;;9.10;6.78;;;;;;;;;;5108882;27;41489;-63
2023/12/02 01:43:21;;;;;;;8.63;6.53;;;;;;;;;;5116067;27;43148;-64
2023/12/02 01:45:49;;;;;;;8.48;6.75;;;;;;;;;;5116884;27;40084;-64
2023/12/02 01:48:17;;;;;;;9.43;6.25;;;;;;;;;;5119956;27;42544;-64
2023/12/02 01:50:45;;;;;;;10.20;7.65;;;;;;;;;;5112921;27;42100;-63
2023/12/02 01:53:13;;;;;;;10.20;7.65;;;;;;;;;;5123825;27;41767;-63
2023/12/02 01:55:41;;;;;;;7.65;6.65;;;;;;;;;;5114376;27;41121;-64
2023/12/02 01:58:09;;;;;;;8.48;6.90;;;;;;;;;;5125657;27;42170;-64
2023/12/02 02:00:38;;;;;;;8.15;6.43;;;;;;;;;;5120909;27;41343;-63
2023/12/02 02:03:06;;;;;;;11.68;8.32;;;;;;;;;;5125133;27;43181;-63
2023/12/02 02:05:35;;;;;;;8.75;6.63;;;;;;;;;;5138202;27;39073;-64
2023/12/02 02:08:03;;;;;;;10.07;7.78;;;;;;;;;;5143216;27;41541;-62
2023/12/02 02:10:31;;;;;;;8.20;6.55;;;;;;;;;;5112591;27;42788;-63
2023/12/02 02:12:58;;;;;;;8.25;6.85;;;;;;;;;;5115838;27;40150;-63
2023/12/02 02:15:26;;;;;;;8.27;6.63;;;;;;;;;;5128529;27;41541;-63
2023/12/02 02:17:56;;;;;;;9.07;7.45;;;;;;;;;;5114517;27;42140;-62
2023/12/02 02:20:24;;;;;;;8.65;6.03;;;;;;;;;;5127252;27;42034;-62
2023/12/02 02:22:53;;;;;;;12.85;7.97;;;;;;;;;;5124632;27;42117;-62
2023/12/02 02:25:21;;;;;;;12.70;8.75;;;;;;;;;;5126662;27;40825;-63
2023/12/02 02:27:49;;;;;;;6.85;5.65;;;;;;;;;;5130575;27;41518;-63
2023/12/02 02:30:17;;;;;;;8.30;6.72;;;;;;;;;;5141510;27;43228;-63
2023/12/02 02:32:45;;;;;;;10.05;6.82;;;;;;;;;;5142360;27;40313;-62
2023/12/02 02:35:13;;;;;;;7.55;6.13;;;;;;;;;;5132105;27;41654;-62
2023/12/02 02:37:41;;;;;;;8.98;7.13;;;;;;;;;;5144030;27;42672;-62
2023/12/02 02:40:11;;;;;;;8.27;6.15;;;;;;;;;;5134430;27;40512;-62
2023/12/02 02:42:39;;;;;;;7.53;6.25;;;;;;;;;;5142966;27;41831;-62
2023/12/02 02:45:07;;;;;;;7.32;6.15;;;;;;;;;;5122102;27;41933;-63
2023/12/02 02:47:35;;;;;;;7.82;6.05;;;;;;;;;;5126847;27;41335;-63
2023/12/02 02:50:03;;;;;;;9.23;6.97;;;;;;;;;;5128800;27;43476;-62
2023/12/02 02:52:31;;;;;;;9.65;6.57;;;;;;;;;;5127132;27;40308;-62
2023/12/02 02:54:59;;;;;;;11.05;8.80;;;;;;;;;;5127877;27;41453;-62
2023/12/02 02:57:28;;;;;;;8.10;6.80;;;;;;;;;;5127301;27;43327;-62
2023/12/02 02:59:56;;;;;;;8.38;6.20;;;;;;;;;;5128430;27;41834;-63
2023/12/02 03:02:24;;;;;;;10.27;7.47;;;;;;;;;;5128910;27;41537;-62
2023/12/02 03:04:52;;;;;;;9.48;7.47;;;;;;;;;;5128076;27;41552;-63
2023/12/02 03:07:20;;;;;;;9.50;7.05;;;;;;;;;;5129878;27;42072;-62
2023/12/02 03:09:49;;;;;;;8.98;6.90;;;;;;;;;;5126681;27;42920;-63
2023/12/02 03:12:17;;;;;;;7.75;5.95;;;;;;;;;;5120213;27;41325;-62
2023/12/02 03:14:46;;;;;;;11.07;7.90;;;;;;;;;;5135775;27;42568;-63
2023/12/02 03:17:17;;;;;;;8.80;6.80;;;;;;;;;;5113333;27;42164;-63
2023/12/02 03:19:45;;;;;;;8.57;6.50;;;;;;;;;;5127546;27;40355;-62
2023/12/02 03:22:13;;;;;;;8.38;6.25;;;;;;;;;;5127064;27;42560;-62
2023/12/02 03:24:41;;;;;;;11.20;9.05;;;;;;;;;;5144362;27;41798;-62
2023/12/02 03:27:08;;;;;;;7.88;6.68;;;;;;;;;;5129299;27;41431;-62
2023/12/02 03:29:36;;;;;;;7.75;6.38;;;;;;;;;;5131154;27;43051;-62
2023/12/02 03:32:06;;;;;;;7.78;6.47;;;;;;;;;;5135321;27;40069;-62
2023/12/02 03:34:34;;;;;;;8.95;6.85;;;;;;;;;;5129807;27;42821;-63
2023/12/02 03:37:03;;;;;;;8.95;7.13;;;;;;;;;;5128489;27;42129;-62
2023/12/02 03:39:30;;;;;;;9.18;7.25;;;;;;;;;;5129688;27;40337;-62
2023/12/02 03:41:58;;;;;;;8.80;6.15;;;;;;;;;;5119153;27;42632;-62
2023/12/02 03:44:27;;;;;;;8.18;6.63;;;;;;;;;;5128424;27;43024;-62
2023/12/02 03:46:54;;;;;;;9.25;7.07;;;;;;;;;;5123434;27;39690;-62
2023/12/02 03:49:24;;;;;;;9.32;6.05;;;;;;;;;;5128276;27;41899;-62
2023/12/02 03:51:52;;;;;;;8.90;6.95;;;;;;;;;;5116103;27;41447;-62
2023/12/02 03:54:20;;;;;;;12.25;8.43;;;;;;;;;;5113703;27;41703;-62
2023/12/02 03:56:48;;;;;;;8.93;7.05;;;;;;;;;;5122862;27;41656;-62
2023/12/02 03:59:16;;;;;;;9.82;7.90;;;;;;;;;;5127828;27;40727;-62
2023/12/02 04:01:44;;;;;;;8.32;6.18;;;;;;;;;;5126499;27;42237;-62
2023/12/02 04:04:13;;;;;;;7.90;6.57;;;;;;;;;;5128301;27;43075;-62
2023/12/02 04:06:42;;;;;;;12.40;8.85;;;;;;;;;;5127836;27;41858;-62
2023/12/02 04:09:10;;;;;;;10.85;8.65;;;;;;;;;;5127763;27;40968;-64
2023/12/02 04:11:38;;;;;;;7.95;6.35;;;;;;;;;;5127976;27;41393;-62
2023/12/02 04:14:06;;;;;;;9.50;7.38;;;;;;;;;;5127721;27;41573;-62
2023/12/02 04:16:34;;;;;;;7.90;6.43;;;;;;;;;;5129106;27;43097;-62
2023/12/02 04:19:03;;;;;;;8.90;6.50;;;;;;;;;;5127871;27;40314;-63
2023/12/02 04:21:31;;;;;;;7.40;6.30;;;;;;;;;;5128435;27;40915;-62
2023/12/02 04:24:01;;;;;;;10.45;7.68;;;;;;;;;;5116276;27;42054;-62
2023/12/02 04:26:29;;;;;;;7.85;6.63;;;;;;;;;;5127950;27;40421;-62
2023/12/02 04:28:57;;;;;;;8.80;7.03;;;;;;;;;;5126371;27;40898;-64
2023/12/02 04:31:25;;;;;;;7.68;5.93;;;;;;;;;;5127751;27;41850;-64
2023/12/02 04:33:53;;;;;;;9.00;6.72;;;;;;;;;;5124763;27;41484;-64
2023/12/02 04:36:21;;;;;;;8.38;6.50;;;;;;;;;;5126590;27;42086;-62
2023/12/02 04:38:49;;;;;;;10.13;6.82;;;;;;;;;;5126132;27;40352;-62
2023/12/02 04:41:18;;;;;;;8.82;6.85;;;;;;;;;;5127226;27;41459;-63
2023/12/02 04:43:46;;;;;;;9.15;7.18;;;;;;;;;;5117461;27;43193;-62
2023/12/02 04:46:16;;;;;;;10.13;7.97;;;;;;;;;;5112076;27;40486;-62
2023/12/02 04:48:44;;;;;;;8.65;6.97;;;;;;;;;;5127486;27;41850;-62
2023/12/02 04:51:11;;;;;;;8.52;6.55;;;;;;;;;;5124147;27;43127;-62
2023/12/02 04:53:40;;;;;;;9.50;6.95;;;;;;;;;;5127130;27;40247;-62
2023/12/02 04:56:09;;;;;;;9.00;6.85;;;;;;;;;;5122711;27;42109;-62
2023/12/02 04:58:38;;;;;;;8.77;7.07;;;;;;;;;;5130738;27;40585;-63
2023/12/02 05:01:06;;;;;;;8.45;6.75;;;;;;;;;;5127498;27;42542;-62
2023/12/02 05:03:34;;;;;;;9.35;7.07;;;;;;;;;;5127703;27;42473;-63
2023/12/02 05:06:02;;;;;;;10.35;7.97;;;;;;;;;;5137172;27;40440;-62
2023/12/02 05:08:30;;;;;;;8.55;6.72;;;;;;;;;;5133471;27;43439;-62
2023/12/02 05:10:58;;;;;;;7.93;6.38;;;;;;;;;;5124919;27;42059;-62
2023/12/02 05:13:26;;;;;;;8.25;6.72;;;;;;;;;;5120398;27;42277;-62
2023/12/02 05:15:55;;;;;;;11.18;8.25;;;;;;;;;;5117690;27;41152;-62
2023/12/02 05:18:23;;;;;;;10.18;7.50;;;;;;;;;;5116081;27;40660;-63
2023/12/02 05:20:51;;;;;;;9.82;7.60;;;;;;;;;;5127495;27;41538;-62
2023/12/02 05:23:19;;;;;;;10.95;8.35;;;;;;;;;;5129221;27;41660;-63
2023/12/02 05:25:47;;;;;;;9.98;7.38;;;;;;;;;;5124554;27;40379;-62
2023/12/02 05:28:15;;;;;;;8.52;6.60;;;;;;;;;;5127642;27;41172;-62
2023/12/02 05:30:43;;;;;;;8.98;6.75;;;;;;;;;;5128591;27;40853;-62
2023/12/02 05:33:12;;;;;;;9.55;7.60;;;;;;;;;;5128583;27;39948;-62
2023/12/02 05:35:40;;;;;;;9.23;7.13;;;;;;;;;;5126568;27;41736;-64
2023/12/02 05:38:08;;;;;;;10.27;7.68;;;;;;;;;;5125900;27;32926;-64
2023/12/02 05:40:36;;;;;;;11.15;8.82;;;;;;;;;;5123924;27;41733;-64
2023/12/02 05:43:04;;;;;;;10.02;7.50;;;;;;;;;;5128462;27;43712;-65
2023/12/02 05:45:32;;;;;;;8.73;6.85;;;;;;;;;;5123094;27;41576;-64
2023/12/02 05:48:00;;;;;;;11.55;7.80;;;;;;;;;;5127758;27;41354;-62
2023/12/02 05:50:29;;;;;;;9.55;8.07;;;;;;;;;;5134015;27;43323;-62
2023/12/02 05:52:58;;;;;;;10.77;8.27;;;;;;;;;;5128754;27;40446;-62
2023/12/02 05:55:26;;;;;;;8.88;7.15;;;;;;;;;;5124603;27;41892;-63
2023/12/02 05:57:54;;;;;;;10.07;7.72;;;;;;;;;;5128247;27;42429;-62
2023/12/02 06:00:23;;;;;;;10.43;7.80;;;;;;;;;;5122571;27;41248;-63
2023/12/02 06:02:51;;;;;;;10.23;7.55;;;;;;;;;;5125780;27;43351;-62
2023/12/02 06:05:19;;;;;;;10.27;7.30;;;;;;;;;;5129537;27;40219;-62
2023/12/02 06:07:49;;;;;;;9.55;7.90;;;;;;;;;;5128419;27;41774;-63
2023/12/02 06:10:17;;;;;;;12.65;9.43;;;;;;;;;;5128232;27;43247;-62
2023/12/02 06:12:45;;;;;;;9.43;6.82;;;;;;;;;;5129890;27;41440;-62
2023/12/02 06:15:13;;;;;;;11.48;8.50;;;;;;;;;;5128330;27;42143;-64
2023/12/02 06:17:41;;;;;;;9.48;7.45;;;;;;;;;;5122805;27;42670;-65
2023/12/02 06:20:11;;;;;;;8.65;7.03;;;;;;;;;;5130235;27;41407;-64
2023/12/02 06:22:39;;;;;;;10.15;7.85;;;;;;;;;;5118721;27;41664;-64
2023/12/02 06:25:09;;;;;;;9.32;6.95;;;;;;;;;;5120570;27;40998;-64
2023/12/02 06:27:37;;;;;;;10.77;7.75;;;;;;;;;;5124452;27;41002;-64
2023/12/02 06:30:06;;;;;;;8.80;6.75;;;;;;;;;;5130065;27;42230;-64
2023/12/02 06:32:34;;;;;;;8.60;6.60;;;;;;;;;;5116401;27;40181;-64
2023/12/02 06:35:04;;;;;;;10.77;7.95;;;;;;;;;;5125964;27;41579;-62
2023/12/02 06:37:31;;;;;;;10.30;7.97;;;;;;;;;;5127352;27;42104;-63
2023/12/02 06:39:59;;;;;;;9.23;7.20;;;;;;;;;;5122580;27;40474;-64
2023/12/02 06:42:29;;;;;;;8.88;6.97;;;;;;;;;;5128030;27;41587;-64
2023/12/02 06:44:57;;;;;;;8.35;6.60;;;;;;;;;;5122925;27;41394;-64
2023/12/02 06:47:25;;;;;;;10.10;7.65;;;;;;;;;;5124592;27;41440;-62
2023/12/02 06:49:53;;;;;;;8.38;6.43;;;;;;;;;;5115116;27;43177;-62
2023/12/02 06:52:21;;;;;;;13.82;6.38;;;;;;;;;;5113613;27;41338;-62
2023/12/02 06:54:49;;;;;;;10.38;7.68;;;;;;;;;;5123070;27;41469;-62
2023/12/02 06:57:20;;;;;;;9.85;7.65;;;;;;;;;;5121800;27;41438;-63
2023/12/02 06:59:51;;;;;;;9.98;7.35;;;;;;;;;;5131885;27;41386;-63
2023/12/02 07:02:19;;;;;;;16.33;11.65;;;;;;;;;;5131156;27;41046;-63
2023/12/02 07:04:47;;;;;;;13.13;10.13;;;;;;;;;;5122267;27;42414;-63
2023/12/02 07:07:15;;;;;;;16.70;8.27;;;;;;;;;;5120109;27;42066;-64
2023/12/02 07:09:43;;;;;;;18.17;6.70;;;;;;;;;;5135894;27;41617;-61
2023/12/02 07:12:10;;;;;;;16.13;7.93;;;;;;;;;;5122536;27;41364;-61
2023/12/02 07:14:38;;;;;;;14.45;8.23;;;;;;;;;;5129731;27;42664;-61
2023/12/02 07:17:08;;;;;;;21.10;7.60;;;;;;;;;;5126587;27;42252;-62
2023/12/02 07:19:36;;;;;;;20.40;7.15;;;;;;;;;;5118303;27;41382;-62
2023/12/02 07:22:04;;;;;;;10.75;6.97;;;;;;;;;;5126104;27;42464;-63
2023/12/02 07:24:32;;;;;;;15.32;7.63;;;;;;;;;;5124022;27;42431;-63
2023/12/02 07:27:00;;;;;;;20.00;7.88;;;;;;;;;;5122187;27;40285;-62
2023/12/02 07:29:28;;;;;;;13.70;6.65;;;;;;;;;;5121371;27;42087;-62
2023/12/02 07:31:59;;;;;;;19.40;7.80;;;;;;;;;;5119595;27;40549;-62
2023/12/02 07:34:28;;;;;;;15.82;7.30;;;;;;;;;;5127266;27;42243;-62
2023/12/02 07:36:56;;;;;;;12.95;6.85;;;;;;;;;;5116867;27;43592;-62
2023/12/02 07:39:24;;;;;;;16.30;7.28;;;;;;;;;;5127778;27;40240;-62
2023/12/02 07:41:52;;;;;;;19.15;7.50;;;;;;;;;;5117654;27;42059;-63
2023/12/02 07:44:20;;;;;;;15.63;8.13;;;;;;;;;;5127520;27;42538;-62
2023/12/02 07:46:48;;;;;;;13.63;7.13;;;;;;;;;;5122324;27;40822;-63
2023/12/02 07:49:16;;;;;;;19.13;6.75;;;;;;;;;;5139042;27;42591;-63
2023/12/02 07:51:45;;;;;;;14.77;8.65;;;;;;;;;;5116976;27;41050;-64
2023/12/02 07:54:13;;;;;;;15.15;8.25;;;;;;;;;;5119697;27;42973;-63
2023/12/02 07:56:41;;;;;;;15.63;7.03;;;;;;;;;;5114930;27;43078;-63
2023/12/02 07:59:09;;;;;;;13.82;6.35;;;;;;;;;;5120200;27;40306;-63
2023/12/02 08:01:36;;;;;;;10.63;7.07;;;;;;;;;;5120388;27;42580;-63
2023/12/02 08:04:05;;;;;;;12.35;7.53;;;;;;;;;;5126800;27;43162;-63
2023/12/02 08:06:33;;;;;;;10.10;6.78;;;;;;;;;;5125222;27;41721;-63
2023/12/02 08:09:04;;;;;;;10.35;7.65;;;;;;;;;;5125351;27;41683;-62
2023/12/02 08:11:31;;;;;;;11.88;6.45;;;;;;;;;;5126011;27;41022;-63
2023/12/02 08:13:59;;;;;;;12.20;6.40;;;;;;;;;;5115260;27;40607;-62
2023/12/02 08:16:28;;;;;;;10.98;6.85;;;;;;;;;;5125494;27;41371;-62
2023/12/02 08:18:56;;;;;;;11.57;6.72;;;;;;;;;;5148674;27;40963;-62
2023/12/02 08:21:24;;;;;;;11.43;6.75;;;;;;;;;;5128057;27;41605;-63
2023/12/02 08:23:52;;;;;;;12.82;7.07;;;;;;;;;;5127185;27;41970;-63
2023/12/02 08:26:21;;;;;;;9.77;6.72;;;;;;;;;;5118897;27;40265;-63
2023/12/02 08:28:49;;;;;;;11.70;7.72;;;;;;;;;;5129689;27;41724;-63
2023/12/02 08:31:17;;;;;;;14.25;6.70;;;;;;;;;;5113894;27;42232;-62
2023/12/02 08:33:45;;;;;;;12.02;7.28;;;;;;;;;;5117448;27;42950;-61
2023/12/02 08:36:13;;;;;;;19.40;6.50;;;;;;;;;;5117668;27;42269;-61
2023/12/02 08:38:42;;;;;;;12.07;6.55;;;;;;;;;;5132834;27;41151;-62
2023/12/02 08:41:11;;;;;;;11.98;7.35;;;;;;;;;;5136096;27;40902;-62
2023/12/02 08:43:41;;;;;;;16.90;7.03;;;;;;;;;;5135208;27;42052;-67
2023/12/02 08:46:13;;;;;;;17.92;6.22;;;;;;;;;;5112444;27;40029;-67
2023/12/02 08:48:41;;;;;;;15.50;6.93;;;;;;;;;;5128268;27;41579;-62
2023/12/02 08:51:09;;;;;;;13.25;7.72;;;;;;;;;;5121895;27;41654;-62
2023/12/02 08:53:36;;;;;;;19.85;7.53;;;;;;;;;;5116569;27;40342;-62
2023/12/02 08:56:05;;;;;;;13.23;8.32;;;;;;;;;;5124184;27;42093;-63
2023/12/02 08:58:33;;;;;;;16.50;7.38;;;;;;;;;;5105640;27;40562;-62
2023/12/02 09:01:02;;;;;;;17.05;8.35;;;;;;;;;;5134151;27;41711;-61
2023/12/02 09:03:30;;;;;;;14.98;7.85;;;;;;;;;;5144883;27;42763;-62
2023/12/02 09:05:58;;;;;;;15.90;8.48;;;;;;;;;;5143229;27;40616;-62
2023/12/02 09:08:26;;;;;;;15.50;8.65;;;;;;;;;;5124666;27;42163;-62
2023/12/02 09:10:54;;;;;;;11.98;6.88;;;;;;;;;;5137760;27;42583;-62
2023/12/02 09:13:26;;;;;;;13.60;7.45;;;;;;;;;;5145549;27;40319;-62
2023/12/02 09:15:53;;;;;;;15.48;7.75;;;;;;;;;;5116783;27;42632;-61
2023/12/02 09:18:26;;;;;;;17.60;7.75;;;;;;;;;;5109685;27;40353;-62
2023/12/02 09:20:55;;;;;;;13.27;6.95;;;;;;;;;;5109615;27;41774;-62
2023/12/02 09:23:23;;;;;;;15.27;8.15;;;;;;;;;;5121348;27;42097;-63
2023/12/02 09:25:53;;;;;;;18.10;8.85;;;;;;;;;;5134052;27;40182;-62
2023/12/02 09:28:20;;;;;;;14.68;6.03;;;;;;;;;;5145660;27;42840;-62
2023/12/02 09:31:03;;;;;;;30.10;7.40;;;;;;;;;;5126862;27;41985;-62
2023/12/02 09:33:38;;;;;;;25.35;9.07;;;;;;;;;;5119879;27;40567;-62
2023/12/02 09:36:08;;;;;;;26.63;7.18;;;;;;;;;;5118981;27;42560;-62
2023/12/02 09:38:36;;;;;;;21.60;6.80;;;;;;;;;;5117981;27;41967;-62
2023/12/02 09:41:23;;;;;;;22.55;7.88;;;;;;;;;;5115697;27;42815;-62
2023/12/02 09:43:57;;;;;;;13.35;6.20;;;;;;;;;;5114284;27;42187;-62
2023/12/02 09:46:26;;;;;;;12.77;6.18;;;;;;;;;;5114873;27;41795;-62
2023/12/02 09:49:02;;;;;;;13.95;5.95;;;;;;;;;;5127402;27;41622;-62
2023/12/02 09:51:34;;;;;;;27.35;6.35;;;;;;;;;;5108058;27;42077;-62
2023/12/02 09:54:06;;;;;;;14.40;8.00;;;;;;;;;;5118105;27;40447;-63
2023/12/02 09:56:35;;;;;;;15.88;7.15;;;;;;;;;;5117061;27;42145;-62
2023/12/02 09:59:07;;;;;;;16.80;8.32;;;;;;;;;;5111719;27;41463;-64
2023/12/02 10:01:37;;;;;;;21.25;9.57;;;;;;;;;;5130158;27;41592;-63
2023/12/02 10:04:10;;;;;;;14.68;7.15;;;;;;;;;;5130273;27;42066;-63
2023/12/02 10:06:44;;;;;;;12.63;7.45;;;;;;;;;;5127233;27;40193;-62
2023/12/02 10:09:13;;;;;;;18.75;6.30;;;;;;;;;;5128848;27;42819;-63
2023/12/02 10:11:43;;;;;;;18.95;6.72;;;;;;;;;;5128674;27;43022;-63
2023/12/02 10:14:11;;;;;;;22.97;6.70;;;;;;;;;;5124075;27;39787;-62
2023/12/02 10:16:41;;;;;;;20.15;9.02;;;;;;;;;;5119492;27;42744;-62
2023/12/02 10:19:11;;;;;;;19.52;8.15;;;;;;;;;;5119587;27;43263;-62
2023/12/02 10:21:41;;;;;;;23.35;8.00;;;;;;;;;;5112057;27;39162;-62
2023/12/02 10:24:09;;;;;;;18.00;7.43;;;;;;;;;;5113942;27;41958;-63
2023/12/02 10:26:39;;;;;;;22.35;8.55;;;;;;;;;;5130226;27;41033;-63
2023/12/02 10:29:10;;;;;;;14.43;7.85;;;;;;;;;;5131263;27;41789;-62
2023/12/02 10:31:40;;;;;;;22.13;9.27;;;;;;;;;;5132043;27;44093;-64
2023/12/02 10:34:12;;;;;;;25.08;9.82;;;;;;;;;;5124557;27;40600;-64
2023/12/02 10:36:42;;;;;;;19.33;6.72;;;;;;;;;;5141465;27;41478;-64
2023/12/02 10:39:10;;;;;;;21.08;6.38;;;;;;;;;;5129947;27;42271;-64
2023/12/02 10:41:45;;;;;;;18.15;6.53;;;;;;;;;;5136337;22;41498;-75
2023/12/02 10:44:14;;;;;;;21.40;8.07;;;;;;;;;;5079192;28;41282;-75
2023/12/02 10:46:43;;;;;;;22.40;9.35;;;;;;;;;;5076999;28;40859;-75
2023/12/02 10:49:12;;;;;;;16.25;8.70;;;;;;;;;;5087020;28;41406;-75
2023/12/02 10:53:03;;;;;;;15.05;7.65;;;;;;;;;;5071681;27;1917308;-76
2023/12/02 10:55:32;;;;;;;14.10;6.25;;;;;;;;;;5122337;27;43148;-77
2023/12/02 10:58:00;;;;;;;20.83;9.32;;;;;;;;;;5122151;27;40386;-76
2023/12/02 11:00:29;;;;;;;14.43;9.40;;;;;;;;;;5123377;27;41166;-75
2023/12/02 11:03:00;;;;;;;12.90;9.68;;;;;;;;;;5123864;27;41618;-74
2023/12/02 11:05:29;;;;;;;14.70;8.43;;;;;;;;;;5123837;27;40208;-74
2023/12/02 11:08:00;;;;;;;12.02;5.90;;;;;;;;;;5117309;27;42001;-72
2023/12/02 11:10:31;;;;;;;10.02;7.28;;;;;;;;;;5115504;27;41942;-75
2023/12/02 11:13:00;;;;;;;15.32;9.13;;;;;;;;;;5111360;27;39428;-77
2023/12/02 11:15:28;;;;;;;14.35;7.88;;;;;;;;;;5114932;27;43006;-75
2023/12/02 11:18:00;;;;;;;12.70;7.60;;;;;;;;;;5110582;27;40283;-77
2023/12/02 11:20:31;;;;;;;13.25;7.05;;;;;;;;;;5124236;27;41360;-74
2023/12/02 11:23:15;;;;;;;8.55;5.72;;;;;;;;;;5122510;27;43127;-72
2023/12/02 11:25:58;;;;;;;17.67;7.72;;;;;;;;;;5121442;27;41464;-72
2023/12/02 11:28:29;;;;;;;12.40;7.03;;;;;;;;;;5122001;27;41676;-71
2023/12/02 11:31:01;;;;;;;9.57;6.45;;;;;;;;;;5122268;27;41931;-70
2023/12/02 11:33:31;;;;;;;14.05;6.75;;;;;;;;;;5116360;27;39916;-74
2023/12/02 11:36:03;;;;;;;12.77;8.07;;;;;;;;;;5109152;27;41093;-72
2023/12/02 11:38:32;;;;;;;12.07;6.88;;;;;;;;;;5119976;27;39865;-72
2023/12/02 11:41:06;;;;;;;11.35;8.90;;;;;;;;;;5111026;27;41286;-72
2023/12/02 11:43:38;;;;;;;16.30;8.93;;;;;;;;;;5120639;27;43025;-74
2023/12/02 11:46:08;;;;;;;16.30;10.23;;;;;;;;;;5112571;27;40258;-74
2023/12/02 11:48:46;;;;;;;15.32;10.30;;;;;;;;;;5121921;27;41102;-72
2023/12/02 11:51:28;;;;;;;17.10;11.95;;;;;;;;;;5110995;27;42302;-79
2023/12/02 11:54:00;;;;;;;13.75;10.63;;;;;;;;;;5119188;27;40513;-80
2023/12/02 11:56:29;;;;;;;12.95;8.25;;;;;;;;;;5124008;27;41605;-74
2023/12/02 11:59:01;;;;;;;9.65;7.57;;;;;;;;;;5121399;27;43348;-75
2023/12/02 12:01:51;;;;;;;13.35;9.52;;;;;;;;;;5123484;27;42291;-74
2023/12/02 12:04:26;;;;;;;9.85;7.57;;;;;;;;;;5108353;27;43001;-73
2023/12/02 12:07:00;;;;;;;11.13;6.38;;;;;;;;;;5106457;27;41085;-74
2023/12/02 12:09:33;;;;;;;13.57;7.70;;;;;;;;;;5103153;27;41779;-74
2023/12/02 12:12:03;;;;;;;9.65;7.50;;;;;;;;;;5098247;27;41765;-73
2023/12/02 12:14:31;;;;;;;14.18;9.38;;;;;;;;;;5103187;27;40933;-73
2023/12/02 12:17:00;;;;;;;9.93;7.90;;;;;;;;;;5105313;27;41553;-73
2023/12/02 12:19:30;;;;;;;9.23;7.15;;;;;;;;;;5105118;27;42776;-73
2023/12/02 12:21:58;;;;;;;9.00;6.75;;;;;;;;;;5105708;27;41211;-73
2023/12/02 12:24:27;;;;;;;10.75;6.47;;;;;;;;;;5106437;27;43006;-73
2023/12/02 12:26:55;;;;;;;11.68;8.57;;;;;;;;;;5108724;27;40104;-73
2023/12/02 12:29:24;;;;;;;8.52;6.43;;;;;;;;;;5107540;27;42097;-73
2023/12/02 12:31:54;;;;;;;15.38;9.70;;;;;;;;;;5097144;27;41847;-73
2023/12/02 12:34:22;;;;;;;14.43;10.73;;;;;;;;;;5107731;27;40940;-73
2023/12/02 12:36:50;;;;;;;10.65;7.22;;;;;;;;;;5106954;27;41041;-73
2023/12/02 12:39:19;;;;;;;9.10;6.38;;;;;;;;;;5108054;27;42129;-73
2023/12/02 12:41:47;;;;;;;13.45;8.95;;;;;;;;;;5106255;27;39903;-73
2023/12/02 12:44:15;;;;;;;12.23;8.15;;;;;;;;;;5097665;28;39946;-74
2023/12/02 12:46:44;;;;;;;11.95;8.57;;;;;;;;;;5104295;27;40199;-73
2023/12/02 12:49:12;;;;;;;16.88;8.38;;;;;;;;;;5107490;28;41322;-73
2023/12/02 12:51:40;;;;;;;14.15;6.65;;;;;;;;;;5092370;27;43133;-74
2023/12/02 12:54:08;;;;;;;15.35;11.00;;;;;;;;;;5101976;27;41049;-73
2023/12/02 12:56:38;;;;;;;12.57;8.63;;;;;;;;;;5078126;28;40218;-73
2023/12/02 12:59:08;;;;;;;13.60;9.95;;;;;;;;;;5106230;27;41479;-73
2023/12/02 13:01:38;;;;;;;15.57;8.65;;;;;;;;;;5095873;27;41310;-73
2023/12/02 13:04:09;;;;;;;12.40;6.85;;;;;;;;;;5105387;27;42200;-74
2023/12/02 13:06:41;;;;;;;12.65;8.18;;;;;;;;;;5107730;28;33656;-74
2023/12/02 13:09:09;;;;;;;12.23;7.45;;;;;;;;;;5105799;27;41429;-73
2023/12/02 13:11:40;;;;;;;9.23;7.15;;;;;;;;;;5107047;27;42037;-74
2023/12/02 13:14:08;;;;;;;12.63;8.45;;;;;;;;;;5104791;27;39908;-74
2023/12/02 13:16:36;;;;;;;14.80;10.95;;;;;;;;;;5104878;28;41696;-73
2023/12/02 13:19:04;;;;;;;11.13;7.47;;;;;;;;;;5105771;27;42658;-74
2023/12/02 13:21:33;;;;;;;11.30;8.20;;;;;;;;;;5106722;27;40318;-73
2023/12/02 13:24:01;;;;;;;14.30;9.43;;;;;;;;;;5104803;27;42515;-74
2023/12/02 13:26:31;;;;;;;16.60;7.38;;;;;;;;;;5104034;27;43115;-75
2023/12/02 13:28:59;;;;;;;16.55;7.88;;;;;;;;;;5106048;28;41863;-73
2023/12/02 13:31:27;;;;;;;27.55;11.10;;;;;;;;;;5105576;27;43392;-74
2023/12/02 13:33:59;;;;;;;21.52;14.05;;;;;;;;;;5097024;27;40426;-72
2023/12/02 13:36:29;;;;;;;22.70;15.30;;;;;;;;;;5103056;27;41708;-74
2023/12/02 13:39:04;;;;;;;25.88;18.05;;;;;;;;;;5105833;27;42354;-76
2023/12/02 13:41:39;;;;;;;26.73;18.05;;;;;;;;;;5107109;27;40070;-75
2023/12/02 13:44:07;;;;;;;24.23;13.07;;;;;;;;;;5108206;27;42092;-74
2023/12/02 13:46:36;;;;;;;29.98;13.98;;;;;;;;;;5107255;27;41683;-75
2023/12/02 13:49:06;;;;;;;24.48;14.32;;;;;;;;;;5097860;28;40107;-76
2023/12/02 13:51:38;;;;;;;18.33;10.88;;;;;;;;;;5097206;28;42301;-76
2023/12/02 13:54:11;;;;;;;22.38;12.05;;;;;;;;;;5097078;27;40315;-75
2023/12/02 13:56:43;;;;;;;22.73;13.00;;;;;;;;;;5099716;27;41604;-75
2023/12/02 13:59:15;;;;;;;16.67;10.25;;;;;;;;;;5101089;27;42300;-75
2023/12/02 14:01:44;;;;;;;12.98;10.13;;;;;;;;;;5107285;28;40193;-73
2023/12/02 14:04:13;;;;;;;16.60;12.02;;;;;;;;;;5106917;27;41703;-74
2023/12/02 14:06:48;;;;;;;18.20;12.10;;;;;;;;;;5107253;28;41447;-75
2023/12/02 14:09:21;;;;;;;17.38;9.63;;;;;;;;;;5106532;27;39926;-76
2023/12/02 14:11:55;;;;;;;17.90;11.60;;;;;;;;;;5107527;27;41421;-75
2023/12/02 14:14:29;;;;;;;18.02;10.68;;;;;;;;;;5105139;27;40903;-74
2023/12/02 14:16:59;;;;;;;16.35;11.07;;;;;;;;;;5107594;27;41513;-73
2023/12/02 14:19:33;;;;;;;13.55;8.63;;;;;;;;;;5107748;28;42364;-74
2023/12/02 14:22:05;;;;;;;12.07;9.45;;;;;;;;;;5105405;28;40867;-74
2023/12/02 14:24:48;;;;;;;18.67;12.88;;;;;;;;;;5106258;27;41334;-73
2023/12/02 14:27:23;;;;;;;13.48;8.90;;;;;;;;;;5105342;28;41635;-74
2023/12/02 14:30:19;;;;;;;10.52;7.45;;;;;;;;;;5098322;28;41025;-74
2023/12/02 14:32:51;;;;;;;11.68;7.93;;;;;;;;;;5047756;27;42476;-74
2023/12/02 14:35:30;;;;;;;15.45;11.05;;;;;;;;;;5106179;27;43003;-74
2023/12/02 14:38:03;;;;;;;10.15;7.72;;;;;;;;;;5107232;28;41774;-75
2023/12/02 14:40:40;;;;;;;10.45;8.02;;;;;;;;;;5106924;28;42108;-74
2023/12/02 14:43:14;;;;;;;23.73;13.15;;;;;;;;;;5105922;27;40107;-73
2023/12/02 14:45:42;;;;;;;11.52;8.18;;;;;;;;;;5106619;27;42015;-75
2023/12/02 14:48:11;;;;;;;20.42;11.82;;;;;;;;;;5102668;28;41686;-73